sensor_id;sensor_type;location;lat;lon;timestamp;P1;durP1;ratioP1;P2;durP2;ratioP2
50631;SDS011;49583;45.590;-122.498;2023-08-06T00:01:39;3.30;;;2.10;;
50631;SDS011;49583;45.590;-122.498;2023-08-06T00:03:49;5.30;;;2.60;;
50631;SDS011;49583;45.590;-122.498;2023-08-06T00:05:59;3.10;;;1.90;;
50631;SDS011;49583;45.590;-122.498;2023-08-06T00:08:09;2.30;;;1.70;;
50631;SDS011;49583;45.590;-122.498;2023-08-06T00:10:38;2.20;;;2.00;;
50631;SDS011;49583;45.590;-122.498;2023-08-06T00:12:49;4.60;;;2.50;;
50631;SDS011;49583;45.590;-122.498;2023-08-06T00:14:58;4.30;;;2.70;;
50631;SDS011;49583;45.590;-122.498;2023-08-06T00:17:17;3.30;;;2.40;;
50631;SDS011;49583;45.590;-122.498;2023-08-06T00:19:27;3.10;;;2.10;;
50631;SDS011;49583;45.590;-122.498;2023-08-06T00:21:36;3.70;;;2.40;;
50631;SDS011;49583;45.590;-122.498;2023-08-06T00:23:46;3.80;;;2.60;;
50631;SDS011;49583;45.590;-122.498;2023-08-06T00:25:55;2.20;;;2.10;;
50631;SDS011;49583;45.590;-122.498;2023-08-06T00:28:05;5.00;;;2.50;;
50631;SDS011;49583;45.590;-122.498;2023-08-06T00:30:15;4.60;;;2.20;;
50631;SDS011;49583;45.590;-122.498;2023-08-06T00:32:25;7.10;;;2.30;;
50631;SDS011;49583;45.590;-122.498;2023-08-06T00:34:35;2.50;;;2.30;;
50631;SDS011;49583;45.590;-122.498;2023-08-06T00:36:46;4.00;;;2.20;;
50631;SDS011;49583;45.590;-122.498;2023-08-06T00:38:55;2.20;;;2.00;;
50631;SDS011;49583;45.590;-122.498;2023-08-06T00:41:05;3.40;;;2.30;;
50631;SDS011;49583;45.590;-122.498;2023-08-06T00:43:15;2.60;;;2.40;;
50631;SDS011;49583;45.590;-122.498;2023-08-06T00:45:25;2.30;;;2.10;;
50631;SDS011;49583;45.590;-122.498;2023-08-06T00:47:38;2.40;;;2.20;;
50631;SDS011;49583;45.590;-122.498;2023-08-06T00:49:52;4.10;;;2.50;;
50631;SDS011;49583;45.590;-122.498;2023-08-06T00:52:06;4.00;;;2.50;;
50631;SDS011;49583;45.590;-122.498;2023-08-06T00:54:16;2.30;;;2.10;;
50631;SDS011;49583;45.590;-122.498;2023-08-06T00:56:34;3.90;;;2.70;;
50631;SDS011;49583;45.590;-122.498;2023-08-06T00:58:44;4.20;;;2.10;;
50631;SDS011;49583;45.590;-122.498;2023-08-06T01:00:54;2.60;;;2.40;;
50631;SDS011;49583;45.590;-122.498;2023-08-06T01:03:14;2.40;;;2.20;;
50631;SDS011;49583;45.590;-122.498;2023-08-06T01:05:34;5.20;;;2.40;;
50631;SDS011;49583;45.590;-122.498;2023-08-06T01:07:46;3.70;;;2.40;;
50631;SDS011;49583;45.590;-122.498;2023-08-06T01:10:23;2.40;;;2.20;;
50631;SDS011;49583;45.590;-122.498;2023-08-06T01:12:45;2.90;;;2.30;;
50631;SDS011;49583;45.590;-122.498;2023-08-06T01:15:04;2.60;;;2.40;;
50631;SDS011;49583;45.590;-122.498;2023-08-06T01:17:19;3.50;;;2.20;;
50631;SDS011;49583;45.590;-122.498;2023-08-06T01:19:35;2.90;;;1.90;;
50631;SDS011;49583;45.590;-122.498;2023-08-06T01:21:45;6.20;;;2.30;;
50631;SDS011;49583;45.590;-122.498;2023-08-06T01:23:58;2.20;;;2.00;;
50631;SDS011;49583;45.590;-122.498;2023-08-06T01:26:10;3.60;;;1.70;;
50631;SDS011;49583;45.590;-122.498;2023-08-06T01:28:27;7.20;;;2.10;;
50631;SDS011;49583;45.590;-122.498;2023-08-06T01:30:45;2.00;;;1.80;;
50631;SDS011;49583;45.590;-122.498;2023-08-06T01:32:58;1.80;;;1.60;;
50631;SDS011;49583;45.590;-122.498;2023-08-06T01:35:15;2.40;;;1.70;;
50631;SDS011;49583;45.590;-122.498;2023-08-06T01:37:26;2.30;;;1.50;;
50631;SDS011;49583;45.590;-122.498;2023-08-06T01:39:41;3.00;;;1.20;;
50631;SDS011;49583;45.590;-122.498;2023-08-06T01:41:52;2.40;;;1.70;;
50631;SDS011;49583;45.590;-122.498;2023-08-06T01:44:02;2.70;;;1.60;;
50631;SDS011;49583;45.590;-122.498;2023-08-06T01:46:15;2.10;;;1.50;;
50631;SDS011;49583;45.590;-122.498;2023-08-06T01:48:24;1.50;;;1.30;;
50631;SDS011;49583;45.590;-122.498;2023-08-06T01:50:35;1.90;;;1.20;;
50631;SDS011;49583;45.590;-122.498;2023-08-06T01:52:44;2.20;;;1.30;;
50631;SDS011;49583;45.590;-122.498;2023-08-06T01:54:54;2.90;;;1.40;;
50631;SDS011;49583;45.590;-122.498;2023-08-06T01:57:04;2.00;;;1.20;;
50631;SDS011;49583;45.590;-122.498;2023-08-06T01:59:16;2.30;;;1.20;;
50631;SDS011;49583;45.590;-122.498;2023-08-06T02:01:27;1.50;;;1.20;;
50631;SDS011;49583;45.590;-122.498;2023-08-06T02:03:37;1.90;;;1.50;;
50631;SDS011;49583;45.590;-122.498;2023-08-06T02:05:49;1.70;;;1.20;;
50631;SDS011;49583;45.590;-122.498;2023-08-06T02:08:00;2.10;;;1.50;;
50631;SDS011;49583;45.590;-122.498;2023-08-06T02:10:11;1.40;;;1.00;;
50631;SDS011;49583;45.590;-122.498;2023-08-06T02:12:21;1.40;;;1.30;;
50631;SDS011;49583;45.590;-122.498;2023-08-06T02:14:35;2.50;;;1.10;;
50631;SDS011;49583;45.590;-122.498;2023-08-06T02:16:45;2.80;;;1.50;;
50631;SDS011;49583;45.590;-122.498;2023-08-06T02:18:55;2.80;;;1.50;;
50631;SDS011;49583;45.590;-122.498;2023-08-06T02:21:05;2.40;;;1.50;;
50631;SDS011;49583;45.590;-122.498;2023-08-06T02:23:18;3.20;;;1.10;;
50631;SDS011;49583;45.590;-122.498;2023-08-06T02:25:28;1.80;;;1.10;;
50631;SDS011;49583;45.590;-122.498;2023-08-06T02:27:38;1.80;;;1.40;;
50631;SDS011;49583;45.590;-122.498;2023-08-06T02:29:48;2.60;;;1.40;;
50631;SDS011;49583;45.590;-122.498;2023-08-06T02:32:01;1.80;;;1.40;;
50631;SDS011;49583;45.590;-122.498;2023-08-06T02:34:12;3.10;;;1.30;;
50631;SDS011;49583;45.590;-122.498;2023-08-06T02:36:23;3.30;;;1.50;;
50631;SDS011;49583;45.590;-122.498;2023-08-06T02:38:37;2.70;;;1.20;;
50631;SDS011;49583;45.590;-122.498;2023-08-06T02:40:48;3.00;;;1.40;;
50631;SDS011;49583;45.590;-122.498;2023-08-06T02:43:01;2.20;;;1.50;;
50631;SDS011;49583;45.590;-122.498;2023-08-06T02:45:11;1.40;;;1.30;;
50631;SDS011;49583;45.590;-122.498;2023-08-06T02:47:22;4.70;;;1.40;;
50631;SDS011;49583;45.590;-122.498;2023-08-06T02:49:33;2.30;;;1.40;;
50631;SDS011;49583;45.590;-122.498;2023-08-06T02:51:44;2.40;;;1.20;;
50631;SDS011;49583;45.590;-122.498;2023-08-06T02:53:54;1.50;;;1.10;;
50631;SDS011;49583;45.590;-122.498;2023-08-06T02:56:05;17.40;;;2.20;;
50631;SDS011;49583;45.590;-122.498;2023-08-06T02:58:25;3.70;;;1.30;;
50631;SDS011;49583;45.590;-122.498;2023-08-06T03:00:42;1.70;;;1.50;;
50631;SDS011;49583;45.590;-122.498;2023-08-06T03:02:52;2.50;;;1.50;;
50631;SDS011;49583;45.590;-122.498;2023-08-06T03:05:11;1.30;;;1.20;;
50631;SDS011;49583;45.590;-122.498;2023-08-06T03:07:24;6.20;;;1.40;;
50631;SDS011;49583;45.590;-122.498;2023-08-06T03:09:49;2.90;;;1.30;;
50631;SDS011;49583;45.590;-122.498;2023-08-06T03:12:00;2.80;;;1.50;;
50631;SDS011;49583;45.590;-122.498;2023-08-06T03:14:10;1.70;;;1.60;;
50631;SDS011;49583;45.590;-122.498;2023-08-06T03:16:21;1.60;;;1.30;;
50631;SDS011;49583;45.590;-122.498;2023-08-06T03:18:32;1.80;;;1.40;;
50631;SDS011;49583;45.590;-122.498;2023-08-06T03:20:42;4.20;;;1.40;;
50631;SDS011;49583;45.590;-122.498;2023-08-06T03:22:55;2.70;;;1.40;;
50631;SDS011;49583;45.590;-122.498;2023-08-06T03:25:06;3.00;;;1.40;;
50631;SDS011;49583;45.590;-122.498;2023-08-06T03:27:18;2.00;;;1.20;;
50631;SDS011;49583;45.590;-122.498;2023-08-06T03:29:28;4.00;;;1.40;;
50631;SDS011;49583;45.590;-122.498;2023-08-06T03:31:38;2.80;;;1.60;;
50631;SDS011;49583;45.590;-122.498;2023-08-06T03:33:52;2.90;;;1.30;;
50631;SDS011;49583;45.590;-122.498;2023-08-06T03:36:03;1.70;;;1.50;;
50631;SDS011;49583;45.590;-122.498;2023-08-06T03:38:13;1.60;;;1.30;;
50631;SDS011;49583;45.590;-122.498;2023-08-06T03:40:26;2.30;;;1.30;;
50631;SDS011;49583;45.590;-122.498;2023-08-06T03:42:36;1.60;;;1.30;;
50631;SDS011;49583;45.590;-122.498;2023-08-06T03:44:46;1.40;;;1.00;;
50631;SDS011;49583;45.590;-122.498;2023-08-06T03:46:56;1.60;;;1.10;;
50631;SDS011;49583;45.590;-122.498;2023-08-06T03:49:06;3.60;;;1.30;;
50631;SDS011;49583;45.590;-122.498;2023-08-06T03:51:16;2.80;;;1.40;;
50631;SDS011;49583;45.590;-122.498;2023-08-06T03:53:26;2.50;;;1.50;;
50631;SDS011;49583;45.590;-122.498;2023-08-06T03:55:36;2.70;;;1.60;;
50631;SDS011;49583;45.590;-122.498;2023-08-06T03:57:46;2.40;;;1.50;;
50631;SDS011;49583;45.590;-122.498;2023-08-06T03:59:55;2.00;;;1.60;;
50631;SDS011;49583;45.590;-122.498;2023-08-06T04:02:08;2.20;;;1.60;;
50631;SDS011;49583;45.590;-122.498;2023-08-06T04:04:27;3.20;;;1.50;;
50631;SDS011;49583;45.590;-122.498;2023-08-06T04:06:40;5.60;;;2.20;;
50631;SDS011;49583;45.590;-122.498;2023-08-06T04:08:51;4.00;;;2.40;;
50631;SDS011;49583;45.590;-122.498;2023-08-06T04:11:04;3.00;;;1.80;;
50631;SDS011;49583;45.590;-122.498;2023-08-06T04:13:14;3.20;;;1.50;;
50631;SDS011;49583;45.590;-122.498;2023-08-06T04:15:23;10.40;;;2.70;;
50631;SDS011;49583;45.590;-122.498;2023-08-06T04:17:34;3.50;;;2.20;;
50631;SDS011;49583;45.590;-122.498;2023-08-06T04:19:45;3.90;;;2.00;;
50631;SDS011;49583;45.590;-122.498;2023-08-06T04:21:55;2.10;;;1.60;;
50631;SDS011;49583;45.590;-122.498;2023-08-06T04:24:05;2.30;;;1.50;;
50631;SDS011;49583;45.590;-122.498;2023-08-06T04:26:14;2.60;;;1.70;;
50631;SDS011;49583;45.590;-122.498;2023-08-06T04:28:24;2.40;;;1.60;;
50631;SDS011;49583;45.590;-122.498;2023-08-06T04:30:34;2.10;;;1.90;;
50631;SDS011;49583;45.590;-122.498;2023-08-06T04:32:45;1.60;;;1.50;;
50631;SDS011;49583;45.590;-122.498;2023-08-06T04:34:56;4.30;;;1.80;;
50631;SDS011;49583;45.590;-122.498;2023-08-06T04:37:06;3.50;;;1.60;;
50631;SDS011;49583;45.590;-122.498;2023-08-06T04:39:16;5.10;;;2.20;;
50631;SDS011;49583;45.590;-122.498;2023-08-06T04:41:26;3.40;;;1.70;;
50631;SDS011;49583;45.590;-122.498;2023-08-06T04:43:36;2.10;;;1.70;;
50631;SDS011;49583;45.590;-122.498;2023-08-06T04:45:48;4.70;;;1.70;;
50631;SDS011;49583;45.590;-122.498;2023-08-06T04:47:59;1.50;;;1.40;;
50631;SDS011;49583;45.590;-122.498;2023-08-06T04:50:09;4.20;;;2.00;;
50631;SDS011;49583;45.590;-122.498;2023-08-06T04:52:19;2.10;;;1.90;;
50631;SDS011;49583;45.590;-122.498;2023-08-06T04:54:28;3.40;;;1.50;;
50631;SDS011;49583;45.590;-122.498;2023-08-06T04:56:38;1.70;;;1.40;;
50631;SDS011;49583;45.590;-122.498;2023-08-06T04:58:48;2.30;;;1.90;;
50631;SDS011;49583;45.590;-122.498;2023-08-06T05:00:58;2.80;;;1.60;;
50631;SDS011;49583;45.590;-122.498;2023-08-06T05:03:08;1.80;;;1.60;;
50631;SDS011;49583;45.590;-122.498;2023-08-06T05:05:17;5.30;;;2.50;;
50631;SDS011;49583;45.590;-122.498;2023-08-06T05:07:27;3.40;;;2.00;;
50631;SDS011;49583;45.590;-122.498;2023-08-06T05:09:37;2.00;;;1.80;;
50631;SDS011;49583;45.590;-122.498;2023-08-06T05:11:47;3.70;;;1.70;;
50631;SDS011;49583;45.590;-122.498;2023-08-06T05:13:57;3.90;;;1.70;;
50631;SDS011;49583;45.590;-122.498;2023-08-06T05:16:07;3.10;;;1.60;;
50631;SDS011;49583;45.590;-122.498;2023-08-06T05:18:16;2.60;;;1.90;;
50631;SDS011;49583;45.590;-122.498;2023-08-06T05:20:26;2.10;;;1.90;;
50631;SDS011;49583;45.590;-122.498;2023-08-06T05:22:39;1.60;;;1.50;;
50631;SDS011;49583;45.590;-122.498;2023-08-06T05:24:48;1.80;;;1.70;;
50631;SDS011;49583;45.590;-122.498;2023-08-06T05:26:58;2.60;;;2.10;;
50631;SDS011;49583;45.590;-122.498;2023-08-06T05:29:08;2.20;;;1.60;;
50631;SDS011;49583;45.590;-122.498;2023-08-06T05:31:17;3.70;;;2.20;;
50631;SDS011;49583;45.590;-122.498;2023-08-06T05:33:27;2.90;;;2.10;;
50631;SDS011;49583;45.590;-122.498;2023-08-06T05:35:36;2.20;;;1.80;;
50631;SDS011;49583;45.590;-122.498;2023-08-06T05:37:47;1.60;;;1.50;;
50631;SDS011;49583;45.590;-122.498;2023-08-06T05:39:57;1.80;;;1.30;;
50631;SDS011;49583;45.590;-122.498;2023-08-06T05:42:08;2.50;;;1.70;;
50631;SDS011;49583;45.590;-122.498;2023-08-06T05:44:18;2.30;;;1.60;;
50631;SDS011;49583;45.590;-122.498;2023-08-06T05:46:27;4.10;;;1.60;;
50631;SDS011;49583;45.590;-122.498;2023-08-06T05:48:39;1.60;;;1.50;;
50631;SDS011;49583;45.590;-122.498;2023-08-06T05:50:49;2.20;;;1.50;;
50631;SDS011;49583;45.590;-122.498;2023-08-06T05:52:58;1.70;;;1.50;;
50631;SDS011;49583;45.590;-122.498;2023-08-06T05:55:08;5.70;;;1.70;;
50631;SDS011;49583;45.590;-122.498;2023-08-06T05:57:18;1.80;;;1.70;;
50631;SDS011;49583;45.590;-122.498;2023-08-06T05:59:27;2.40;;;1.70;;
50631;SDS011;49583;45.590;-122.498;2023-08-06T06:01:37;3.30;;;2.00;;
50631;SDS011;49583;45.590;-122.498;2023-08-06T06:03:46;1.90;;;1.80;;
50631;SDS011;49583;45.590;-122.498;2023-08-06T06:05:56;1.60;;;1.50;;
50631;SDS011;49583;45.590;-122.498;2023-08-06T06:08:07;1.90;;;1.80;;
50631;SDS011;49583;45.590;-122.498;2023-08-06T06:10:17;1.70;;;1.50;;
50631;SDS011;49583;45.590;-122.498;2023-08-06T06:12:26;1.80;;;1.70;;
50631;SDS011;49583;45.590;-122.498;2023-08-06T06:14:36;1.90;;;1.70;;
50631;SDS011;49583;45.590;-122.498;2023-08-06T06:16:46;1.80;;;1.60;;
50631;SDS011;49583;45.590;-122.498;2023-08-06T06:18:55;2.20;;;1.90;;
50631;SDS011;49583;45.590;-122.498;2023-08-06T06:21:05;2.90;;;1.60;;
50631;SDS011;49583;45.590;-122.498;2023-08-06T06:23:18;2.20;;;1.90;;
50631;SDS011;49583;45.590;-122.498;2023-08-06T06:25:27;2.20;;;1.80;;
50631;SDS011;49583;45.590;-122.498;2023-08-06T06:27:37;3.80;;;1.70;;
50631;SDS011;49583;45.590;-122.498;2023-08-06T06:29:46;1.50;;;1.40;;
50631;SDS011;49583;45.590;-122.498;2023-08-06T06:31:56;3.10;;;1.90;;
50631;SDS011;49583;45.590;-122.498;2023-08-06T06:34:05;2.00;;;1.90;;
50631;SDS011;49583;45.590;-122.498;2023-08-06T06:36:18;2.50;;;1.30;;
50631;SDS011;49583;45.590;-122.498;2023-08-06T06:38:28;2.20;;;1.60;;
50631;SDS011;49583;45.590;-122.498;2023-08-06T06:40:37;1.90;;;1.80;;
50631;SDS011;49583;45.590;-122.498;2023-08-06T06:42:46;3.00;;;1.80;;
50631;SDS011;49583;45.590;-122.498;2023-08-06T06:44:56;5.10;;;1.80;;
50631;SDS011;49583;45.590;-122.498;2023-08-06T06:47:06;4.20;;;1.50;;
50631;SDS011;49583;45.590;-122.498;2023-08-06T06:49:19;5.20;;;2.10;;
50631;SDS011;49583;45.590;-122.498;2023-08-06T06:51:32;4.30;;;1.90;;
50631;SDS011;49583;45.590;-122.498;2023-08-06T06:53:44;2.80;;;1.90;;
50631;SDS011;49583;45.590;-122.498;2023-08-06T06:56:00;1.90;;;1.30;;
50631;SDS011;49583;45.590;-122.498;2023-08-06T06:58:15;3.20;;;1.90;;
50631;SDS011;49583;45.590;-122.498;2023-08-06T07:00:25;2.40;;;1.80;;
50631;SDS011;49583;45.590;-122.498;2023-08-06T07:02:34;2.30;;;2.00;;
50631;SDS011;49583;45.590;-122.498;2023-08-06T07:04:45;2.80;;;2.10;;
50631;SDS011;49583;45.590;-122.498;2023-08-06T07:06:54;2.40;;;1.60;;
50631;SDS011;49583;45.590;-122.498;2023-08-06T07:09:04;4.20;;;1.80;;
50631;SDS011;49583;45.590;-122.498;2023-08-06T07:11:17;2.30;;;1.70;;
50631;SDS011;49583;45.590;-122.498;2023-08-06T07:13:26;1.80;;;1.70;;
50631;SDS011;49583;45.590;-122.498;2023-08-06T07:15:39;2.20;;;1.70;;
50631;SDS011;49583;45.590;-122.498;2023-08-06T07:17:48;3.20;;;1.90;;
50631;SDS011;49583;45.590;-122.498;2023-08-06T07:19:58;2.30;;;1.80;;
50631;SDS011;49583;45.590;-122.498;2023-08-06T07:22:08;2.50;;;2.10;;
50631;SDS011;49583;45.590;-122.498;2023-08-06T07:24:21;2.20;;;1.80;;
50631;SDS011;49583;45.590;-122.498;2023-08-06T07:26:31;2.20;;;2.00;;
50631;SDS011;49583;45.590;-122.498;2023-08-06T07:28:41;3.90;;;1.80;;
50631;SDS011;49583;45.590;-122.498;2023-08-06T07:30:50;3.00;;;1.60;;
50631;SDS011;49583;45.590;-122.498;2023-08-06T07:33:09;2.60;;;1.60;;
50631;SDS011;49583;45.590;-122.498;2023-08-06T07:35:20;2.10;;;2.00;;
50631;SDS011;49583;45.590;-122.498;2023-08-06T07:37:30;4.60;;;2.00;;
50631;SDS011;49583;45.590;-122.498;2023-08-06T07:39:39;2.40;;;2.10;;
50631;SDS011;49583;45.590;-122.498;2023-08-06T07:41:49;1.60;;;1.50;;
50631;SDS011;49583;45.590;-122.498;2023-08-06T07:43:59;1.90;;;1.70;;
50631;SDS011;49583;45.590;-122.498;2023-08-06T07:46:12;2.70;;;1.90;;
50631;SDS011;49583;45.590;-122.498;2023-08-06T07:48:22;2.30;;;1.80;;
50631;SDS011;49583;45.590;-122.498;2023-08-06T07:50:32;2.10;;;1.70;;
50631;SDS011;49583;45.590;-122.498;2023-08-06T07:52:45;3.40;;;1.70;;
50631;SDS011;49583;45.590;-122.498;2023-08-06T07:54:55;2.40;;;1.80;;
50631;SDS011;49583;45.590;-122.498;2023-08-06T07:57:06;2.50;;;2.00;;
50631;SDS011;49583;45.590;-122.498;2023-08-06T07:59:16;2.10;;;1.80;;
50631;SDS011;49583;45.590;-122.498;2023-08-06T08:01:26;3.00;;;1.60;;
50631;SDS011;49583;45.590;-122.498;2023-08-06T08:03:36;2.20;;;2.00;;
50631;SDS011;49583;45.590;-122.498;2023-08-06T08:05:46;3.60;;;2.10;;
50631;SDS011;49583;45.590;-122.498;2023-08-06T08:07:57;2.10;;;1.80;;
50631;SDS011;49583;45.590;-122.498;2023-08-06T08:10:08;2.80;;;2.10;;
50631;SDS011;49583;45.590;-122.498;2023-08-06T08:12:17;1.90;;;1.60;;
50631;SDS011;49583;45.590;-122.498;2023-08-06T08:14:27;4.10;;;1.80;;
50631;SDS011;49583;45.590;-122.498;2023-08-06T08:16:41;2.20;;;1.70;;
50631;SDS011;49583;45.590;-122.498;2023-08-06T08:18:50;2.50;;;2.00;;
50631;SDS011;49583;45.590;-122.498;2023-08-06T08:21:00;4.00;;;2.00;;
50631;SDS011;49583;45.590;-122.498;2023-08-06T08:23:13;2.40;;;1.80;;
50631;SDS011;49583;45.590;-122.498;2023-08-06T08:25:22;2.70;;;1.90;;
50631;SDS011;49583;45.590;-122.498;2023-08-06T08:27:36;1.90;;;1.70;;
50631;SDS011;49583;45.590;-122.498;2023-08-06T08:29:46;1.90;;;1.50;;
50631;SDS011;49583;45.590;-122.498;2023-08-06T08:31:55;3.30;;;2.10;;
50631;SDS011;49583;45.590;-122.498;2023-08-06T08:34:05;1.90;;;1.70;;
50631;SDS011;49583;45.590;-122.498;2023-08-06T08:36:15;3.30;;;1.90;;
50631;SDS011;49583;45.590;-122.498;2023-08-06T08:38:24;2.70;;;1.80;;
50631;SDS011;49583;45.590;-122.498;2023-08-06T08:40:37;2.30;;;2.00;;
50631;SDS011;49583;45.590;-122.498;2023-08-06T08:42:52;3.60;;;1.80;;
50631;SDS011;49583;45.590;-122.498;2023-08-06T08:45:03;2.80;;;1.90;;
50631;SDS011;49583;45.590;-122.498;2023-08-06T08:47:19;3.40;;;1.80;;
50631;SDS011;49583;45.590;-122.498;2023-08-06T08:49:29;1.80;;;1.70;;
50631;SDS011;49583;45.590;-122.498;2023-08-06T08:51:43;2.60;;;1.90;;
50631;SDS011;49583;45.590;-122.498;2023-08-06T08:53:53;3.70;;;1.50;;
50631;SDS011;49583;45.590;-122.498;2023-08-06T08:56:03;1.80;;;1.70;;
50631;SDS011;49583;45.590;-122.498;2023-08-06T08:58:13;2.00;;;1.80;;
50631;SDS011;49583;45.590;-122.498;2023-08-06T09:00:23;2.10;;;1.60;;
50631;SDS011;49583;45.590;-122.498;2023-08-06T09:02:33;2.10;;;1.90;;
50631;SDS011;49583;45.590;-122.498;2023-08-06T09:05:05;3.10;;;1.90;;
50631;SDS011;49583;45.590;-122.498;2023-08-06T09:07:17;1.90;;;1.60;;
50631;SDS011;49583;45.590;-122.498;2023-08-06T09:09:30;1.50;;;1.40;;
50631;SDS011;49583;45.590;-122.498;2023-08-06T09:11:44;2.10;;;1.50;;
50631;SDS011;49583;45.590;-122.498;2023-08-06T09:16:03;1.80;;;1.70;;
50631;SDS011;49583;45.590;-122.498;2023-08-06T09:18:13;2.40;;;1.40;;
50631;SDS011;49583;45.590;-122.498;2023-08-06T09:20:32;1.60;;;1.50;;
50631;SDS011;49583;45.590;-122.498;2023-08-06T09:22:44;1.40;;;1.30;;
50631;SDS011;49583;45.590;-122.498;2023-08-06T09:24:55;1.50;;;1.40;;
50631;SDS011;49583;45.590;-122.498;2023-08-06T09:27:05;2.80;;;1.60;;
50631;SDS011;49583;45.590;-122.498;2023-08-06T09:29:17;1.70;;;1.50;;
50631;SDS011;49583;45.590;-122.498;2023-08-06T09:31:30;2.10;;;1.30;;
50631;SDS011;49583;45.590;-122.498;2023-08-06T09:33:46;1.60;;;1.50;;
50631;SDS011;49583;45.590;-122.498;2023-08-06T09:35:59;3.90;;;1.50;;
50631;SDS011;49583;45.590;-122.498;2023-08-06T09:38:16;2.00;;;1.80;;
50631;SDS011;49583;45.590;-122.498;2023-08-06T09:40:29;2.30;;;2.10;;
50631;SDS011;49583;45.590;-122.498;2023-08-06T09:42:39;1.90;;;1.70;;
50631;SDS011;49583;45.590;-122.498;2023-08-06T09:44:51;1.90;;;1.40;;
50631;SDS011;49583;45.590;-122.498;2023-08-06T09:47:15;1.90;;;1.30;;
50631;SDS011;49583;45.590;-122.498;2023-08-06T09:49:26;2.10;;;1.40;;
50631;SDS011;49583;45.590;-122.498;2023-08-06T09:51:47;1.30;;;1.20;;
50631;SDS011;49583;45.590;-122.498;2023-08-06T09:53:59;1.30;;;1.20;;
50631;SDS011;49583;45.590;-122.498;2023-08-06T09:56:31;1.40;;;1.30;;
50631;SDS011;49583;45.590;-122.498;2023-08-06T09:58:46;2.30;;;1.50;;
50631;SDS011;49583;45.590;-122.498;2023-08-06T10:00:56;1.70;;;1.60;;
50631;SDS011;49583;45.590;-122.498;2023-08-06T10:03:07;2.40;;;1.90;;
50631;SDS011;49583;45.590;-122.498;2023-08-06T10:05:19;2.30;;;1.80;;
50631;SDS011;49583;45.590;-122.498;2023-08-06T10:07:33;3.30;;;2.20;;
50631;SDS011;49583;45.590;-122.498;2023-08-06T10:09:44;3.00;;;1.60;;
50631;SDS011;49583;45.590;-122.498;2023-08-06T10:11:54;1.90;;;1.50;;
50631;SDS011;49583;45.590;-122.498;2023-08-06T10:14:06;1.60;;;1.50;;
50631;SDS011;49583;45.590;-122.498;2023-08-06T10:16:20;2.00;;;1.70;;
50631;SDS011;49583;45.590;-122.498;2023-08-06T10:20:39;1.80;;;1.50;;
50631;SDS011;49583;45.590;-122.498;2023-08-06T10:22:48;1.60;;;1.50;;
50631;SDS011;49583;45.590;-122.498;2023-08-06T10:25:09;1.90;;;1.80;;
50631;SDS011;49583;45.590;-122.498;2023-08-06T10:27:29;2.20;;;1.70;;
50631;SDS011;49583;45.590;-122.498;2023-08-06T10:29:40;3.00;;;1.90;;
50631;SDS011;49583;45.590;-122.498;2023-08-06T10:32:12;1.60;;;1.50;;
50631;SDS011;49583;45.590;-122.498;2023-08-06T10:34:24;2.10;;;1.50;;
50631;SDS011;49583;45.590;-122.498;2023-08-06T10:36:55;2.00;;;1.80;;
50631;SDS011;49583;45.590;-122.498;2023-08-06T10:39:05;2.20;;;2.00;;
50631;SDS011;49583;45.590;-122.498;2023-08-06T10:41:38;2.20;;;1.60;;
50631;SDS011;49583;45.590;-122.498;2023-08-06T10:43:54;2.40;;;1.90;;
50631;SDS011;49583;45.590;-122.498;2023-08-06T10:46:25;2.00;;;1.70;;
50631;SDS011;49583;45.590;-122.498;2023-08-06T10:48:36;1.70;;;1.60;;
50631;SDS011;49583;45.590;-122.498;2023-08-06T10:50:46;2.10;;;1.40;;
50631;SDS011;49583;45.590;-122.498;2023-08-06T10:52:57;1.80;;;1.50;;
50631;SDS011;49583;45.590;-122.498;2023-08-06T10:55:11;1.60;;;1.50;;
50631;SDS011;49583;45.590;-122.498;2023-08-06T10:57:21;1.50;;;1.30;;
50631;SDS011;49583;45.590;-122.498;2023-08-06T10:59:34;2.40;;;1.60;;
50631;SDS011;49583;45.590;-122.498;2023-08-06T11:01:47;1.90;;;1.70;;
50631;SDS011;49583;45.590;-122.498;2023-08-06T11:04:00;1.50;;;1.40;;
50631;SDS011;49583;45.590;-122.498;2023-08-06T11:06:11;1.70;;;1.60;;
50631;SDS011;49583;45.590;-122.498;2023-08-06T11:08:27;1.60;;;1.50;;
50631;SDS011;49583;45.590;-122.498;2023-08-06T11:10:40;1.90;;;1.80;;
50631;SDS011;49583;45.590;-122.498;2023-08-06T11:13:07;1.40;;;1.30;;
50631;SDS011;49583;45.590;-122.498;2023-08-06T11:15:17;1.60;;;1.50;;
50631;SDS011;49583;45.590;-122.498;2023-08-06T11:17:28;2.50;;;1.50;;
50631;SDS011;49583;45.590;-122.498;2023-08-06T11:19:39;2.00;;;1.60;;
50631;SDS011;49583;45.590;-122.498;2023-08-06T11:21:54;2.20;;;1.40;;
50631;SDS011;49583;45.590;-122.498;2023-08-06T11:24:05;1.10;;;1.00;;
50631;SDS011;49583;45.590;-122.498;2023-08-06T11:26:14;1.50;;;1.40;;
50631;SDS011;49583;45.590;-122.498;2023-08-06T11:28:33;1.50;;;1.40;;
50631;SDS011;49583;45.590;-122.498;2023-08-06T11:30:53;2.30;;;1.60;;
50631;SDS011;49583;45.590;-122.498;2023-08-06T11:33:08;2.30;;;1.50;;
50631;SDS011;49583;45.590;-122.498;2023-08-06T11:35:17;4.10;;;1.60;;
50631;SDS011;49583;45.590;-122.498;2023-08-06T11:37:27;3.10;;;1.70;;
50631;SDS011;49583;45.590;-122.498;2023-08-06T11:39:37;1.40;;;1.30;;
50631;SDS011;49583;45.590;-122.498;2023-08-06T11:41:54;1.40;;;1.30;;
50631;SDS011;49583;45.590;-122.498;2023-08-06T11:46:28;3.40;;;1.60;;
50631;SDS011;49583;45.590;-122.498;2023-08-06T11:48:58;1.50;;;1.40;;
50631;SDS011;49583;45.590;-122.498;2023-08-06T11:51:13;1.30;;;1.20;;
50631;SDS011;49583;45.590;-122.498;2023-08-06T11:53:22;1.70;;;1.40;;
50631;SDS011;49583;45.590;-122.498;2023-08-06T11:55:36;1.70;;;1.40;;
50631;SDS011;49583;45.590;-122.498;2023-08-06T11:57:49;1.60;;;1.40;;
50631;SDS011;49583;45.590;-122.498;2023-08-06T12:00:06;2.50;;;1.60;;
50631;SDS011;49583;45.590;-122.498;2023-08-06T12:02:32;1.50;;;1.40;;
50631;SDS011;49583;45.590;-122.498;2023-08-06T12:05:01;2.00;;;1.90;;
50631;SDS011;49583;45.590;-122.498;2023-08-06T12:07:20;2.60;;;1.60;;
50631;SDS011;49583;45.590;-122.498;2023-08-06T12:09:35;1.60;;;1.30;;
50631;SDS011;49583;45.590;-122.498;2023-08-06T12:11:45;1.50;;;1.30;;
50631;SDS011;49583;45.590;-122.498;2023-08-06T12:13:54;2.30;;;1.60;;
50631;SDS011;49583;45.590;-122.498;2023-08-06T12:16:04;2.20;;;1.40;;
50631;SDS011;49583;45.590;-122.498;2023-08-06T12:18:17;1.30;;;1.20;;
50631;SDS011;49583;45.590;-122.498;2023-08-06T12:20:29;2.00;;;1.30;;
50631;SDS011;49583;45.590;-122.498;2023-08-06T12:22:44;2.40;;;1.60;;
50631;SDS011;49583;45.590;-122.498;2023-08-06T12:24:53;1.80;;;1.40;;
50631;SDS011;49583;45.590;-122.498;2023-08-06T12:27:03;1.30;;;1.20;;
50631;SDS011;49583;45.590;-122.498;2023-08-06T12:29:13;1.40;;;1.30;;
50631;SDS011;49583;45.590;-122.498;2023-08-06T12:31:22;1.70;;;1.60;;
50631;SDS011;49583;45.590;-122.498;2023-08-06T12:33:42;1.50;;;1.30;;
50631;SDS011;49583;45.590;-122.498;2023-08-06T12:35:55;1.90;;;1.40;;
50631;SDS011;49583;45.590;-122.498;2023-08-06T12:38:04;1.90;;;1.60;;
50631;SDS011;49583;45.590;-122.498;2023-08-06T12:40:14;1.50;;;1.40;;
50631;SDS011;49583;45.590;-122.498;2023-08-06T12:42:39;2.40;;;1.40;;
50631;SDS011;49583;45.590;-122.498;2023-08-06T12:44:49;1.50;;;1.40;;
50631;SDS011;49583;45.590;-122.498;2023-08-06T12:46:58;1.80;;;1.30;;
50631;SDS011;49583;45.590;-122.498;2023-08-06T12:49:08;1.70;;;1.60;;